createdAt,value
2023-05-19T00:01:30.742Z,2.30
2023-05-19T00:04:04.247Z,2.50
2023-05-19T00:06:35.909Z,2.50
2023-05-19T00:09:09.947Z,2.17
2023-05-19T00:11:40.429Z,2.30
2023-05-19T00:14:10.573Z,2.17
2023-05-19T00:16:42.379Z,2.43
2023-05-19T00:19:14.528Z,2.30
2023-05-19T00:21:44.574Z,2.00
2023-05-19T00:24:16.694Z,2.30
2023-05-19T00:26:46.863Z,2.17
2023-05-19T00:29:18.612Z,2.13
2023-05-19T00:31:48.479Z,1.90
2023-05-19T00:34:17.673Z,2.37
2023-05-19T00:36:46.727Z,2.50
2023-05-19T00:39:16.569Z,2.50
2023-05-19T00:41:47.602Z,2.00
2023-05-19T00:44:16.879Z,2.37
2023-05-19T00:46:46.847Z,1.80
2023-05-19T00:49:17.069Z,1.77
2023-05-19T00:51:48.611Z,1.73
2023-05-19T00:54:18.502Z,2.17
2023-05-19T00:56:49.279Z,1.70
2023-05-19T00:59:18.406Z,1.83
2023-05-19T01:01:50.926Z,2.00
2023-05-19T01:04:21.573Z,1.73
2023-05-19T01:06:54.499Z,1.97
2023-05-19T01:09:24.772Z,1.80
2023-05-19T01:11:56.195Z,1.80
2023-05-19T01:14:26.380Z,1.23
2023-05-19T01:17:05.136Z,1.40
2023-05-19T01:19:50.682Z,1.60
2023-05-19T01:22:43.758Z,1.93
2023-05-19T01:25:46.827Z,1.40
2023-05-19T01:29:03.271Z,1.50
2023-05-19T01:31:33.719Z,1.60
2023-05-19T01:34:04.621Z,1.57
2023-05-19T01:36:37.555Z,2.03
2023-05-19T01:39:08.008Z,1.53
2023-05-19T01:41:38.363Z,1.87
2023-05-19T01:44:09.870Z,1.40
2023-05-19T01:46:40.379Z,1.87
2023-05-19T01:49:11.035Z,1.60
2023-05-19T01:51:40.632Z,1.43
2023-05-19T01:54:10.344Z,1.67
2023-05-19T01:56:49.384Z,1.93
2023-05-19T01:59:33.667Z,1.33
2023-05-19T02:02:08.841Z,2.00
2023-05-19T02:04:47.319Z,1.50
2023-05-19T02:07:31.515Z,1.70
2023-05-19T02:10:07.778Z,1.35
2023-05-19T02:12:39.759Z,1.77
2023-05-19T02:15:22.560Z,1.80
2023-05-19T02:17:53.877Z,1.60
2023-05-19T02:20:32.193Z,1.67
2023-05-19T02:23:06.117Z,1.80
2023-05-19T02:25:35.225Z,1.60
2023-05-19T02:28:06.396Z,1.63
2023-05-19T02:30:35.458Z,1.97
2023-05-19T02:33:08.151Z,2.20
2023-05-19T02:35:41.083Z,1.55
2023-05-19T02:38:10.022Z,1.97
2023-05-19T02:40:39.106Z,2.33
2023-05-19T02:43:08.100Z,1.87
2023-05-19T02:45:38.234Z,1.80
2023-05-19T02:48:07.273Z,2.23
2023-05-19T02:50:36.824Z,2.20
2023-05-19T02:53:07.737Z,1.90
2023-05-19T02:55:36.889Z,2.57
2023-05-19T02:58:10.869Z,2.60
2023-05-19T03:00:44.603Z,2.70
2023-05-19T03:03:16.189Z,2.30
2023-05-19T03:05:47.203Z,2.47
2023-05-19T03:08:16.070Z,2.00
2023-05-19T03:10:46.703Z,2.63
2023-05-19T03:13:16.747Z,2.20
2023-05-19T03:15:46.025Z,2.80
2023-05-19T03:18:16.102Z,2.10
2023-05-19T03:20:45.332Z,2.70
2023-05-19T03:23:15.479Z,2.90
2023-05-19T03:25:44.729Z,2.77
2023-05-19T03:28:17.041Z,2.57
2023-05-19T03:30:48.676Z,2.47
2023-05-19T03:33:20.589Z,2.67
2023-05-19T03:35:50.097Z,3.10
2023-05-19T03:38:19.307Z,3.90
2023-05-19T03:40:56.365Z,3.90
2023-05-19T03:43:26.056Z,4.53
2023-05-19T03:46:06.654Z,4.20
2023-05-19T03:48:55.884Z,4.73
2023-05-19T03:51:43.981Z,3.47
2023-05-19T03:54:27.505Z,3.97
2023-05-19T03:56:59.468Z,4.67
2023-05-19T03:59:28.799Z,4.40
2023-05-19T04:01:58.092Z,4.50
2023-05-19T04:04:32.981Z,4.17
2023-05-19T04:07:05.342Z,4.00
2023-05-19T04:09:36.525Z,3.40
2023-05-19T04:12:09.036Z,3.40
2023-05-19T04:14:39.237Z,3.47
2023-05-19T04:17:10.502Z,3.00
2023-05-19T04:19:39.643Z,3.37
2023-05-19T04:22:09.482Z,3.00
2023-05-19T04:24:40.515Z,3.83
2023-05-19T04:27:11.702Z,3.13
2023-05-19T04:29:43.252Z,3.07
2023-05-19T04:32:17.022Z,3.23
2023-05-19T04:34:46.323Z,3.02
2023-05-19T04:37:19.749Z,3.33
2023-05-19T04:39:48.994Z,3.10
2023-05-19T04:42:21.290Z,3.30
2023-05-19T04:44:51.369Z,2.67
2023-05-19T04:47:21.725Z,2.93
2023-05-19T04:49:55.209Z,3.17
2023-05-19T04:52:24.269Z,2.90
2023-05-19T04:54:56.226Z,2.30
2023-05-19T04:57:26.003Z,2.30
2023-05-19T04:59:59.382Z,3.03
2023-05-19T05:05:03.743Z,2.30
2023-05-19T05:07:32.750Z,2.50
2023-05-19T05:10:04.012Z,2.43
2023-05-19T05:12:41.917Z,2.80
2023-05-19T05:15:20.813Z,2.73
2023-05-19T05:17:55.733Z,2.80
2023-05-19T05:20:28.566Z,2.43
2023-05-19T05:23:08.957Z,2.97
2023-05-19T05:25:43.850Z,2.40
2023-05-19T05:28:14.227Z,2.77
2023-05-19T05:30:50.105Z,2.93
2023-05-19T05:33:21.937Z,3.07
2023-05-19T05:35:54.692Z,3.07
2023-05-19T05:38:24.722Z,2.87
2023-05-19T05:40:55.943Z,2.70
2023-05-19T05:43:25.485Z,2.27
2023-05-19T05:45:58.712Z,2.70
2023-05-19T05:48:31.923Z,3.00
2023-05-19T05:51:09.984Z,2.63
2023-05-19T05:53:45.066Z,2.47
2023-05-19T05:56:18.423Z,2.60
2023-05-19T05:58:55.085Z,3.30
2023-05-19T06:01:27.121Z,2.40
2023-05-19T06:03:58.798Z,2.77
2023-05-19T06:06:32.929Z,2.77
2023-05-19T06:09:08.617Z,2.53
2023-05-19T06:11:45.736Z,2.70
2023-05-19T06:14:23.103Z,2.50
2023-05-19T06:17:15.199Z,2.37
2023-05-19T06:19:45.532Z,2.30
2023-05-19T06:22:15.583Z,2.93
2023-05-19T06:24:46.230Z,3.10
2023-05-19T06:27:16.720Z,2.80
2023-05-19T06:29:47.009Z,2.30
2023-05-19T06:32:16.490Z,2.73
2023-05-19T06:34:53.512Z,2.40
2023-05-19T06:37:24.684Z,2.37
2023-05-19T06:39:54.379Z,3.00
2023-05-19T06:42:26.989Z,2.73
2023-05-19T06:45:16.308Z,2.62
2023-05-19T06:47:49.282Z,2.73
2023-05-19T06:50:19.956Z,2.50
2023-05-19T06:52:52.697Z,2.60
2023-05-19T06:55:41.387Z,2.80
2023-05-19T06:58:25.643Z,2.57
2023-05-19T07:00:55.132Z,2.53
2023-05-19T07:03:26.854Z,2.47
2023-05-19T07:05:58.053Z,2.30
2023-05-19T07:08:27.902Z,2.35
2023-05-19T07:10:57.153Z,2.40
2023-05-19T07:13:27.670Z,2.70
2023-05-19T07:15:57.764Z,2.50
2023-05-19T07:18:31.252Z,2.33
2023-05-19T07:21:00.438Z,2.10
2023-05-19T07:23:29.957Z,2.97
2023-05-19T07:26:01.167Z,2.50
2023-05-19T07:28:30.116Z,2.30
2023-05-19T07:30:59.145Z,2.80
2023-05-19T07:33:27.931Z,3.03
2023-05-19T07:35:57.205Z,2.70
2023-05-19T07:38:26.464Z,2.87
2023-05-19T07:40:56.085Z,2.93
2023-05-19T07:43:25.810Z,3.50
2023-05-19T07:45:56.140Z,3.23
2023-05-19T07:48:29.202Z,2.97
2023-05-19T07:50:58.384Z,3.10
2023-05-19T07:53:29.769Z,3.10
2023-05-19T07:56:00.503Z,3.13
2023-05-19T07:58:32.281Z,3.77
2023-05-19T08:01:01.437Z,3.17
2023-05-19T08:03:30.786Z,3.43
2023-05-19T08:06:00.299Z,3.27
2023-05-19T08:08:33.605Z,3.37
2023-05-19T08:11:06.964Z,2.90
2023-05-19T08:13:36.202Z,3.80
2023-05-19T08:16:05.847Z,3.23
2023-05-19T08:18:35.084Z,3.57
2023-05-19T08:21:04.706Z,3.07
2023-05-19T08:23:34.750Z,3.57
2023-05-19T08:26:04.010Z,3.55
2023-05-19T08:28:32.871Z,4.00
2023-05-19T08:31:02.209Z,3.80
2023-05-19T08:33:33.974Z,4.03
2023-05-19T08:36:03.179Z,3.77
2023-05-19T08:38:33.482Z,3.53
2023-05-19T08:41:03.158Z,4.50
2023-05-19T08:43:32.285Z,3.90
2023-05-19T08:46:01.394Z,4.50
2023-05-19T08:48:35.258Z,4.00
2023-05-19T08:51:14.537Z,4.00
2023-05-19T08:53:50.351Z,3.60
2023-05-19T08:56:23.505Z,3.97
2023-05-19T08:58:53.144Z,3.70
2023-05-19T09:01:23.628Z,4.13
2023-05-19T09:03:52.878Z,4.50
2023-05-19T09:06:22.870Z,4.10
2023-05-19T09:08:54.689Z,3.60
2023-05-19T09:11:24.171Z,4.07
2023-05-19T09:13:55.506Z,4.67
2023-05-19T09:16:35.956Z,4.20
2023-05-19T09:19:15.594Z,4.73
2023-05-19T09:21:45.345Z,4.63
2023-05-19T09:24:17.563Z,3.83
2023-05-19T09:26:47.512Z,4.20
2023-05-19T09:29:17.810Z,4.17
2023-05-19T09:31:51.110Z,3.90
2023-05-19T09:34:21.057Z,4.50
2023-05-19T09:36:52.661Z,4.30
2023-05-19T09:39:22.824Z,3.87
2023-05-19T09:41:53.737Z,3.80
2023-05-19T09:44:28.718Z,4.40
2023-05-19T09:46:59.481Z,4.10
2023-05-19T09:49:30.285Z,4.30
2023-05-19T09:52:03.105Z,4.40
2023-05-19T09:54:33.887Z,4.77
2023-05-19T09:57:08.302Z,5.07
2023-05-19T09:59:38.881Z,4.13
2023-05-19T10:02:18.081Z,4.87
2023-05-19T10:04:48.242Z,3.97
2023-05-19T10:07:19.347Z,4.63
2023-05-19T10:09:50.635Z,5.20
2023-05-19T10:12:20.594Z,5.27
2023-05-19T10:14:49.696Z,4.60
2023-05-19T10:17:19.207Z,5.00
2023-05-19T10:19:54.289Z,4.77
2023-05-19T10:22:24.524Z,4.90
2023-05-19T10:24:55.545Z,4.87
2023-05-19T10:27:26.781Z,5.33
2023-05-19T10:30:00.551Z,4.30
2023-05-19T10:32:32.507Z,5.37
2023-05-19T10:35:32.619Z,5.03
2023-05-19T10:38:17.498Z,4.77
2023-05-19T10:40:58.100Z,5.20
2023-05-19T10:43:49.662Z,5.33
2023-05-19T10:46:23.181Z,5.47
2023-05-19T10:48:52.898Z,5.80
2023-05-19T10:51:35.593Z,5.20
2023-05-19T10:54:09.402Z,5.17
2023-05-19T10:56:43.300Z,4.90
2023-05-19T10:59:33.869Z,5.07
2023-05-19T11:02:07.431Z,4.53
2023-05-19T11:04:49.580Z,5.63
2023-05-19T11:07:24.631Z,6.20
2023-05-19T11:09:54.730Z,5.63
2023-05-19T11:12:25.352Z,5.73
2023-05-19T11:14:55.917Z,6.67
2023-05-19T11:17:26.858Z,5.85
2023-05-19T11:19:57.174Z,5.47
2023-05-19T11:22:28.237Z,5.53
2023-05-19T11:24:58.680Z,5.50
2023-05-19T11:27:32.171Z,6.20
2023-05-19T11:30:15.473Z,5.60
2023-05-19T11:32:48.434Z,5.93
2023-05-19T11:35:20.815Z,6.60
2023-05-19T11:37:51.775Z,6.03
2023-05-19T11:40:23.312Z,5.60
2023-05-19T11:42:52.770Z,5.25
2023-05-19T11:45:26.032Z,5.85
2023-05-19T11:48:02.549Z,6.05
2023-05-19T11:50:32.929Z,5.80
2023-05-19T11:53:07.011Z,6.10
2023-05-19T11:58:06.034Z,5.43
2023-05-19T12:00:38.688Z,5.23
2023-05-19T12:03:10.680Z,6.17
2023-05-19T12:05:43.896Z,5.93
2023-05-19T12:08:14.513Z,5.65
2023-05-19T12:10:43.576Z,6.03
2023-05-19T12:13:14.748Z,6.07
2023-05-19T12:15:44.061Z,5.93
2023-05-19T12:18:14.686Z,5.03
2023-05-19T12:20:44.164Z,5.40
2023-05-19T12:23:14.823Z,5.30
2023-05-19T12:25:45.244Z,5.23
2023-05-19T12:28:16.058Z,5.73
2023-05-19T12:30:51.455Z,6.27
2023-05-19T12:33:21.832Z,5.23
2023-05-19T12:35:51.188Z,5.23
2023-05-19T12:38:21.787Z,5.03
2023-05-19T12:40:51.148Z,4.87
2023-05-19T12:43:28.717Z,5.33
2023-05-19T12:45:58.150Z,5.30
2023-05-19T12:48:28.540Z,4.40
2023-05-19T12:50:57.961Z,5.03
2023-05-19T12:53:30.786Z,5.07
2023-05-19T12:55:59.846Z,4.83
2023-05-19T12:58:28.835Z,5.07
2023-05-19T13:01:01.216Z,4.77
2023-05-19T13:03:30.398Z,4.93
2023-05-19T13:05:59.832Z,4.73
2023-05-19T13:08:37.526Z,5.33
2023-05-19T13:11:07.031Z,4.63
2023-05-19T13:13:36.353Z,4.67
2023-05-19T13:16:09.250Z,4.70
2023-05-19T13:18:39.204Z,4.83
2023-05-19T13:21:08.723Z,4.83
2023-05-19T13:23:38.016Z,4.37
2023-05-19T13:26:08.615Z,4.73
2023-05-19T13:28:40.859Z,4.50
2023-05-19T13:31:11.395Z,4.47
2023-05-19T13:33:42.870Z,4.63
2023-05-19T13:36:13.462Z,5.07
2023-05-19T13:38:45.806Z,4.37
2023-05-19T13:41:18.432Z,4.23
2023-05-19T13:43:50.497Z,4.77
2023-05-19T13:46:26.559Z,4.33
2023-05-19T13:49:11.092Z,5.10
2023-05-19T13:51:46.956Z,4.93
2023-05-19T13:54:17.472Z,5.13
2023-05-19T13:56:49.919Z,4.07
2023-05-19T13:59:20.889Z,5.33
2023-05-19T14:01:50.274Z,4.33
2023-05-19T14:04:27.838Z,4.23
2023-05-19T14:07:02.490Z,4.80
2023-05-19T14:09:34.946Z,4.37
2023-05-19T14:12:11.662Z,4.40
2023-05-19T14:14:41.257Z,4.57
2023-05-19T14:17:10.597Z,4.90
2023-05-19T14:19:40.659Z,4.50
2023-05-19T14:22:14.189Z,4.83
2023-05-19T14:24:43.180Z,5.00
2023-05-19T14:27:17.087Z,4.57
2023-05-19T14:29:48.266Z,5.07
2023-05-19T14:32:19.377Z,4.63
2023-05-19T14:34:52.264Z,5.37
2023-05-19T14:37:21.750Z,4.40
2023-05-19T14:39:53.573Z,4.73
2023-05-19T14:42:24.198Z,4.47
2023-05-19T14:44:53.795Z,4.43
2023-05-19T14:47:22.999Z,4.60
2023-05-19T14:49:54.840Z,5.00
2023-05-19T14:52:25.735Z,4.97
2023-05-19T14:54:57.910Z,5.50
2023-05-19T14:57:28.037Z,5.60
2023-05-19T14:59:59.199Z,4.67
2023-05-19T15:02:29.789Z,5.23
2023-05-19T15:05:23.412Z,4.70
2023-05-19T15:07:57.321Z,4.70
2023-05-19T15:10:35.777Z,4.83
2023-05-19T15:13:09.090Z,5.43
2023-05-19T15:15:38.089Z,4.70
2023-05-19T15:18:08.286Z,4.77
2023-05-19T15:20:37.478Z,4.77
2023-05-19T15:23:09.137Z,4.77
2023-05-19T15:25:38.459Z,5.20
2023-05-19T15:28:26.432Z,5.90
2023-05-19T15:30:56.025Z,4.83
2023-05-19T15:33:31.478Z,5.00
2023-05-19T15:36:03.932Z,4.80
2023-05-19T15:38:36.395Z,4.67
2023-05-19T15:41:09.013Z,4.77
2023-05-19T15:43:38.322Z,5.00
2023-05-19T15:46:10.169Z,4.47
2023-05-19T15:48:39.306Z,4.80
2023-05-19T15:51:11.948Z,4.97
2023-05-19T15:53:44.974Z,4.83
2023-05-19T15:56:16.770Z,5.07
2023-05-19T15:58:45.786Z,5.17
2023-05-19T16:01:16.555Z,5.40
2023-05-19T16:03:47.510Z,5.13
2023-05-19T16:06:17.926Z,5.23
2023-05-19T16:08:46.958Z,5.00
2023-05-19T16:11:20.626Z,4.40
2023-05-19T16:13:49.777Z,4.17
2023-05-19T16:16:20.587Z,5.00
2023-05-19T16:18:49.997Z,4.50
2023-05-19T16:21:20.834Z,4.80
2023-05-19T16:23:50.142Z,5.37
2023-05-19T16:26:27.370Z,5.50
2023-05-19T16:28:56.570Z,4.80
2023-05-19T16:31:29.083Z,5.53
2023-05-19T16:33:58.349Z,5.53
2023-05-19T16:36:34.323Z,5.57
2023-05-19T16:39:03.492Z,5.60
2023-05-19T16:41:33.111Z,4.77
2023-05-19T16:44:02.413Z,5.17
2023-05-19T16:46:33.945Z,5.17
2023-05-19T16:49:04.223Z,5.17
2023-05-19T16:51:33.855Z,5.57
2023-05-19T16:54:05.940Z,5.47
2023-05-19T16:56:36.802Z,5.40
2023-05-19T16:59:07.805Z,4.93
2023-05-19T17:01:38.286Z,5.47
2023-05-19T17:04:08.520Z,5.37
2023-05-19T17:06:39.042Z,5.60
2023-05-19T17:09:09.341Z,6.10
2023-05-19T17:11:41.016Z,5.07
2023-05-19T17:14:12.362Z,5.33
2023-05-19T17:16:46.362Z,5.80
2023-05-19T17:19:18.177Z,5.77
2023-05-19T17:21:51.220Z,5.87
2023-05-19T17:24:21.832Z,5.83
2023-05-19T17:26:51.551Z,5.97
2023-05-19T17:29:24.298Z,5.87
2023-05-19T17:31:56.397Z,6.30
2023-05-19T17:34:26.421Z,6.57
2023-05-19T17:37:02.278Z,5.83
2023-05-19T17:39:36.515Z,5.77
2023-05-19T17:42:07.113Z,6.17
2023-05-19T17:44:38.326Z,5.17
2023-05-19T17:47:10.931Z,6.30
2023-05-19T17:49:41.201Z,5.47
2023-05-19T17:52:16.082Z,5.57
2023-05-19T17:54:46.693Z,5.20
2023-05-19T17:57:20.348Z,6.27
2023-05-19T17:59:53.031Z,6.03
2023-05-19T18:02:23.566Z,6.00
2023-05-19T18:04:57.063Z,6.17
2023-05-19T18:07:28.147Z,6.30
2023-05-19T18:09:58.820Z,6.13
2023-05-19T18:12:29.468Z,5.77
2023-05-19T18:14:58.872Z,5.17
2023-05-19T18:17:28.071Z,5.90
2023-05-19T18:19:56.943Z,5.70
2023-05-19T18:22:27.692Z,5.87
2023-05-19T18:24:57.187Z,5.63
2023-05-19T18:27:34.817Z,5.30
2023-05-19T18:30:04.770Z,5.67
2023-05-19T18:32:35.646Z,5.13
2023-05-19T18:35:09.683Z,6.65
2023-05-19T18:40:09.888Z,5.97
2023-05-19T18:42:47.877Z,6.87
2023-05-19T18:45:22.591Z,6.20
2023-05-19T18:47:52.890Z,6.53
2023-05-19T18:50:22.754Z,6.77
2023-05-19T18:52:52.144Z,5.85
2023-05-19T18:55:27.104Z,6.20
2023-05-19T18:57:56.140Z,6.03
2023-05-19T19:00:30.002Z,6.50
2023-05-19T19:03:17.117Z,5.70
2023-05-19T19:05:55.818Z,6.27
2023-05-19T19:08:29.142Z,5.90
2023-05-19T19:11:00.821Z,6.30
2023-05-19T19:13:30.589Z,6.10
2023-05-19T19:16:03.570Z,6.47
2023-05-19T19:18:36.006Z,5.95
2023-05-19T19:21:08.256Z,5.63
2023-05-19T19:23:38.940Z,6.53
2023-05-19T19:26:09.145Z,6.07
2023-05-19T19:28:38.657Z,6.63
2023-05-19T19:31:10.127Z,5.90
2023-05-19T19:33:44.625Z,6.57
2023-05-19T19:36:15.668Z,6.07
2023-05-19T19:38:50.084Z,6.23
2023-05-19T19:41:21.037Z,6.60
2023-05-19T19:43:53.848Z,12.00
2023-05-19T19:46:28.513Z,9.40
2023-05-19T19:49:05.868Z,8.13
2023-05-19T19:51:34.887Z,8.07
2023-05-19T19:54:09.831Z,8.17
2023-05-19T19:56:40.536Z,7.40
2023-05-19T19:59:30.744Z,7.30
2023-05-19T20:02:01.382Z,8.30
2023-05-19T20:04:34.381Z,7.57
2023-05-19T20:07:07.083Z,6.83
2023-05-19T20:09:36.073Z,7.80
2023-05-19T20:12:07.214Z,6.97
2023-05-19T20:14:40.238Z,7.20
2023-05-19T20:17:12.491Z,7.17
2023-05-19T20:19:42.789Z,7.13
2023-05-19T20:22:25.306Z,7.40
2023-05-19T20:24:55.226Z,7.40
2023-05-19T20:27:28.046Z,7.23
2023-05-19T20:29:57.149Z,7.37
2023-05-19T20:32:27.024Z,7.17
2023-05-19T20:34:57.756Z,7.73
2023-05-19T20:37:30.398Z,7.57
2023-05-19T20:40:10.699Z,7.20
2023-05-19T20:42:43.402Z,7.80
2023-05-19T20:45:21.074Z,7.33
2023-05-19T20:47:52.198Z,6.97
2023-05-19T20:50:21.518Z,8.20
2023-05-19T20:52:50.580Z,8.27
2023-05-19T20:55:19.610Z,8.17
2023-05-19T20:57:49.108Z,8.37
2023-05-19T21:00:22.150Z,7.53
2023-05-19T21:02:51.826Z,9.13
2023-05-19T21:05:22.797Z,7.50
2023-05-19T21:07:54.145Z,7.57
2023-05-19T21:10:23.316Z,7.13
2023-05-19T21:12:58.380Z,7.47
2023-05-19T21:15:28.831Z,7.67
2023-05-19T21:17:58.396Z,7.77
2023-05-19T21:20:28.749Z,7.93
2023-05-19T21:22:57.591Z,7.80
2023-05-19T21:25:27.572Z,9.47
2023-05-19T21:27:57.732Z,7.63
2023-05-19T21:30:26.629Z,7.20
2023-05-19T21:32:55.805Z,8.30
2023-05-19T21:35:27.100Z,11.10
2023-05-19T21:37:56.413Z,10.30
2023-05-19T21:40:25.519Z,9.00
2023-05-19T21:42:54.598Z,9.13
2023-05-19T21:45:24.938Z,9.13
2023-05-19T21:47:54.825Z,10.00
2023-05-19T21:50:24.191Z,8.60
2023-05-19T21:52:53.197Z,8.87
2023-05-19T21:55:22.760Z,7.97
2023-05-19T21:57:51.702Z,8.43
2023-05-19T22:00:20.708Z,8.47
2023-05-19T22:02:50.235Z,9.27
2023-05-19T22:05:22.284Z,8.97
2023-05-19T22:07:51.613Z,8.87
2023-05-19T22:10:21.994Z,8.73
2023-05-19T22:12:52.628Z,10.00
2023-05-19T22:15:21.873Z,8.83
2023-05-19T22:17:52.357Z,8.50
2023-05-19T22:20:21.620Z,7.53
2023-05-19T22:22:50.653Z,8.77
2023-05-19T22:25:20.874Z,8.33
2023-05-19T22:27:56.766Z,7.83
2023-05-19T22:30:25.869Z,8.03
2023-05-19T22:32:54.884Z,8.00
2023-05-19T22:35:24.142Z,8.77
2023-05-19T22:37:55.695Z,9.77
2023-05-19T22:40:25.088Z,9.27
2023-05-19T22:42:55.218Z,10.00
2023-05-19T22:45:25.329Z,9.53
2023-05-19T22:47:55.200Z,9.50
2023-05-19T22:50:24.386Z,9.23
2023-05-19T22:52:57.660Z,8.60
2023-05-19T22:55:26.554Z,9.57
2023-05-19T22:57:57.485Z,9.67
2023-05-19T23:00:26.391Z,9.73
2023-05-19T23:02:57.881Z,9.60
2023-05-19T23:05:27.226Z,10.23
2023-05-19T23:07:57.208Z,10.23
2023-05-19T23:10:35.456Z,9.53
2023-05-19T23:13:09.072Z,9.43
2023-05-19T23:15:38.260Z,9.10
2023-05-19T23:18:09.294Z,8.77
2023-05-19T23:20:39.336Z,8.93
2023-05-19T23:23:09.305Z,8.57
2023-05-19T23:25:41.558Z,9.13
2023-05-19T23:28:10.688Z,8.57
2023-05-19T23:30:40.354Z,9.90
2023-05-19T23:33:12.255Z,9.00
2023-05-19T23:35:45.547Z,10.00
2023-05-19T23:38:16.718Z,9.83
2023-05-19T23:40:45.567Z,9.37
2023-05-19T23:43:18.340Z,9.53
2023-05-19T23:45:47.137Z,9.67
2023-05-19T23:48:17.486Z,9.73
2023-05-19T23:50:46.707Z,9.70
2023-05-19T23:53:21.045Z,10.47
2023-05-19T23:55:51.572Z,9.53
2023-05-19T23:58:22.988Z,9.20
